sensor_id;sensor_type;location;lat;lon;timestamp;pressure;altitude;pressure_sealevel;temperature;humidity
34482;BME280;20720;48.886;9.388;2023-11-18T00:02:21;99201.38;;;9.88;100.00
34482;BME280;20720;48.886;9.388;2023-11-18T00:04:47;99210.59;;;10.37;100.00
34482;BME280;20720;48.886;9.388;2023-11-18T00:07:12;99208.81;;;10.15;100.00
34482;BME280;20720;48.886;9.388;2023-11-18T00:09:37;99202.59;;;9.39;100.00
34482;BME280;20720;48.886;9.388;2023-11-18T00:12:03;99195.31;;;9.10;100.00
34482;BME280;20720;48.886;9.388;2023-11-18T00:14:29;99192.47;;;9.28;100.00
34482;BME280;20720;48.886;9.388;2023-11-18T00:16:55;99201.66;;;9.32;100.00
34482;BME280;20720;48.886;9.388;2023-11-18T00:19:20;99197.94;;;9.10;100.00
34482;BME280;20720;48.886;9.388;2023-11-18T00:21:45;99199.19;;;9.38;100.00
34482;BME280;20720;48.886;9.388;2023-11-18T00:24:11;99207.69;;;9.71;100.00
34482;BME280;20720;48.886;9.388;2023-11-18T00:26:39;99205.25;;;10.00;100.00
34482;BME280;20720;48.886;9.388;2023-11-18T00:29:07;99201.69;;;9.63;100.00
34482;BME280;20720;48.886;9.388;2023-11-18T00:31:33;99211.97;;;9.72;100.00
34482;BME280;20720;48.886;9.388;2023-11-18T00:33:58;99211.22;;;9.09;100.00
34482;BME280;20720;48.886;9.388;2023-11-18T00:36:24;99215.31;;;9.58;100.00
34482;BME280;20720;48.886;9.388;2023-11-18T00:38:49;99224.91;;;9.74;100.00
34482;BME280;20720;48.886;9.388;2023-11-18T00:41:14;99216.75;;;9.69;100.00
34482;BME280;20720;48.886;9.388;2023-11-18T00:43:39;99215.69;;;9.47;100.00
34482;BME280;20720;48.886;9.388;2023-11-18T00:46:05;99214.00;;;9.93;100.00
34482;BME280;20720;48.886;9.388;2023-11-18T00:48:30;99213.81;;;9.64;100.00
34482;BME280;20720;48.886;9.388;2023-11-18T00:50:56;99212.47;;;9.98;100.00
34482;BME280;20720;48.886;9.388;2023-11-18T00:53:21;99207.00;;;9.85;100.00
34482;BME280;20720;48.886;9.388;2023-11-18T00:55:47;99211.94;;;10.11;100.00
34482;BME280;20720;48.886;9.388;2023-11-18T00:58:12;99218.66;;;10.05;100.00
34482;BME280;20720;48.886;9.388;2023-11-18T01:00:38;99215.03;;;9.84;100.00
34482;BME280;20720;48.886;9.388;2023-11-18T01:03:03;99216.22;;;10.12;100.00
34482;BME280;20720;48.886;9.388;2023-11-18T01:05:29;99220.41;;;9.90;100.00
34482;BME280;20720;48.886;9.388;2023-11-18T01:07:56;99222.56;;;10.17;100.00
34482;BME280;20720;48.886;9.388;2023-11-18T01:10:21;99224.19;;;10.18;100.00
34482;BME280;20720;48.886;9.388;2023-11-18T01:12:47;99217.63;;;9.61;100.00
34482;BME280;20720;48.886;9.388;2023-11-18T01:15:12;99222.06;;;9.91;100.00
34482;BME280;20720;48.886;9.388;2023-11-18T01:17:38;99219.22;;;9.70;100.00
34482;BME280;20720;48.886;9.388;2023-11-18T01:20:04;99228.16;;;10.14;100.00
34482;BME280;20720;48.886;9.388;2023-11-18T01:22:39;99228.66;;;10.18;100.00
34482;BME280;20720;48.886;9.388;2023-11-18T01:25:06;99225.47;;;9.92;100.00
34482;BME280;20720;48.886;9.388;2023-11-18T01:27:33;99234.06;;;9.47;100.00
34482;BME280;20720;48.886;9.388;2023-11-18T01:29:59;99234.56;;;9.81;100.00
34482;BME280;20720;48.886;9.388;2023-11-18T01:32:24;99237.41;;;9.72;100.00
34482;BME280;20720;48.886;9.388;2023-11-18T01:34:50;99235.88;;;10.16;100.00
34482;BME280;20720;48.886;9.388;2023-11-18T01:37:16;99238.03;;;10.12;100.00
34482;BME280;20720;48.886;9.388;2023-11-18T01:39:41;99243.28;;;10.12;100.00
34482;BME280;20720;48.886;9.388;2023-11-18T01:42:07;99243.72;;;9.85;100.00
34482;BME280;20720;48.886;9.388;2023-11-18T01:44:32;99240.34;;;9.99;100.00
34482;BME280;20720;48.886;9.388;2023-11-18T01:47:01;99232.81;;;9.66;100.00
34482;BME280;20720;48.886;9.388;2023-11-18T01:49:32;99239.66;;;10.05;100.00
34482;BME280;20720;48.886;9.388;2023-11-18T01:52:02;99245.91;;;10.12;100.00
34482;BME280;20720;48.886;9.388;2023-11-18T01:54:28;99239.56;;;9.60;100.00
34482;BME280;20720;48.886;9.388;2023-11-18T01:56:54;99237.38;;;9.80;100.00
34482;BME280;20720;48.886;9.388;2023-11-18T01:59:20;99231.94;;;9.42;100.00
34482;BME280;20720;48.886;9.388;2023-11-18T02:01:51;99229.28;;;9.89;100.00
34482;BME280;20720;48.886;9.388;2023-11-18T02:04:18;99225.22;;;9.48;100.00
34482;BME280;20720;48.886;9.388;2023-11-18T02:06:45;99224.81;;;9.90;100.00
34482;BME280;20720;48.886;9.388;2023-11-18T02:09:12;99229.69;;;10.31;100.00
34482;BME280;20720;48.886;9.388;2023-11-18T02:11:43;99234.31;;;10.29;100.00
34482;BME280;20720;48.886;9.388;2023-11-18T02:14:14;99243.00;;;10.53;100.00
34482;BME280;20720;48.886;9.388;2023-11-18T02:16:42;99238.19;;;10.56;100.00
34482;BME280;20720;48.886;9.388;2023-11-18T02:19:21;99246.72;;;10.58;100.00
34482;BME280;20720;48.886;9.388;2023-11-18T02:21:51;99239.38;;;9.70;100.00
34482;BME280;20720;48.886;9.388;2023-11-18T02:24:26;99249.66;;;9.79;100.00
34482;BME280;20720;48.886;9.388;2023-11-18T02:26:53;99244.28;;;9.73;100.00
34482;BME280;20720;48.886;9.388;2023-11-18T02:29:21;99243.75;;;9.77;100.00
34482;BME280;20720;48.886;9.388;2023-11-18T02:31:49;99246.22;;;10.17;100.00
34482;BME280;20720;48.886;9.388;2023-11-18T02:34:22;99238.25;;;9.95;100.00
34482;BME280;20720;48.886;9.388;2023-11-18T02:36:51;99250.06;;;10.29;100.00
34482;BME280;20720;48.886;9.388;2023-11-18T02:39:22;99245.66;;;9.91;100.00
34482;BME280;20720;48.886;9.388;2023-11-18T02:41:52;99248.19;;;10.38;100.00
34482;BME280;20720;48.886;9.388;2023-11-18T02:44:18;99246.69;;;10.43;100.00
34482;BME280;20720;48.886;9.388;2023-11-18T02:46:45;99247.47;;;9.91;100.00
34482;BME280;20720;48.886;9.388;2023-11-18T02:49:11;99239.66;;;10.13;100.00
34482;BME280;20720;48.886;9.388;2023-11-18T02:51:37;99235.69;;;10.17;100.00
34482;BME280;20720;48.886;9.388;2023-11-18T02:54:08;99244.88;;;10.44;100.00
34482;BME280;20720;48.886;9.388;2023-11-18T02:56:39;99240.50;;;10.06;100.00
34482;BME280;20720;48.886;9.388;2023-11-18T02:59:04;99239.50;;;10.37;100.00
34482;BME280;20720;48.886;9.388;2023-11-18T03:01:33;99237.31;;;10.64;100.00
34482;BME280;20720;48.886;9.388;2023-11-18T03:03:59;99242.06;;;10.46;100.00
34482;BME280;20720;48.886;9.388;2023-11-18T03:06:25;99235.66;;;10.25;100.00
34482;BME280;20720;48.886;9.388;2023-11-18T03:08:51;99232.31;;;10.31;100.00
34482;BME280;20720;48.886;9.388;2023-11-18T03:11:16;99230.50;;;10.32;100.00
34482;BME280;20720;48.886;9.388;2023-11-18T03:13:42;99225.78;;;10.27;100.00
34482;BME280;20720;48.886;9.388;2023-11-18T03:16:08;99223.22;;;10.19;100.00
34482;BME280;20720;48.886;9.388;2023-11-18T03:18:37;99225.25;;;10.32;100.00
34482;BME280;20720;48.886;9.388;2023-11-18T03:21:03;99228.41;;;10.50;100.00
34482;BME280;20720;48.886;9.388;2023-11-18T03:23:31;99230.75;;;10.45;100.00
34482;BME280;20720;48.886;9.388;2023-11-18T03:25:57;99235.16;;;10.22;100.00
34482;BME280;20720;48.886;9.388;2023-11-18T03:28:22;99229.00;;;10.37;100.00
34482;BME280;20720;48.886;9.388;2023-11-18T03:30:48;99237.31;;;10.41;100.00
34482;BME280;20720;48.886;9.388;2023-11-18T03:33:13;99239.72;;;10.28;100.00
34482;BME280;20720;48.886;9.388;2023-11-18T03:35:39;99233.53;;;10.43;100.00
34482;BME280;20720;48.886;9.388;2023-11-18T03:38:04;99230.00;;;10.06;100.00
34482;BME280;20720;48.886;9.388;2023-11-18T03:40:30;99229.22;;;10.51;100.00
34482;BME280;20720;48.886;9.388;2023-11-18T03:42:55;99231.09;;;10.65;100.00
34482;BME280;20720;48.886;9.388;2023-11-18T03:45:23;99242.28;;;10.59;100.00
34482;BME280;20720;48.886;9.388;2023-11-18T03:47:49;99240.78;;;10.41;100.00
34482;BME280;20720;48.886;9.388;2023-11-18T03:50:16;99239.03;;;10.57;100.00
34482;BME280;20720;48.886;9.388;2023-11-18T03:52:42;99233.13;;;10.55;100.00
34482;BME280;20720;48.886;9.388;2023-11-18T03:55:07;99235.00;;;10.69;100.00
34482;BME280;20720;48.886;9.388;2023-11-18T03:57:33;99243.81;;;10.53;100.00
34482;BME280;20720;48.886;9.388;2023-11-18T03:59:59;99234.69;;;10.18;100.00
34482;BME280;20720;48.886;9.388;2023-11-18T04:02:24;99233.91;;;10.18;100.00
34482;BME280;20720;48.886;9.388;2023-11-18T04:04:50;99234.13;;;10.31;100.00
34482;BME280;20720;48.886;9.388;2023-11-18T04:07:15;99241.47;;;10.35;100.00
34482;BME280;20720;48.886;9.388;2023-11-18T04:09:40;99231.47;;;10.08;100.00
34482;BME280;20720;48.886;9.388;2023-11-18T04:12:09;99236.28;;;9.97;100.00
34482;BME280;20720;48.886;9.388;2023-11-18T04:14:36;99228.91;;;9.92;100.00
34482;BME280;20720;48.886;9.388;2023-11-18T04:17:01;99241.94;;;10.16;100.00
34482;BME280;20720;48.886;9.388;2023-11-18T04:19:26;99244.97;;;10.28;100.00
34482;BME280;20720;48.886;9.388;2023-11-18T04:21:52;99236.13;;;10.29;100.00
34482;BME280;20720;48.886;9.388;2023-11-18T04:24:17;99237.28;;;9.65;100.00
34482;BME280;20720;48.886;9.388;2023-11-18T04:26:43;99238.00;;;9.82;100.00
34482;BME280;20720;48.886;9.388;2023-11-18T04:29:08;99249.25;;;9.98;100.00
34482;BME280;20720;48.886;9.388;2023-11-18T04:31:33;99242.00;;;10.00;100.00
34482;BME280;20720;48.886;9.388;2023-11-18T04:34:02;99248.28;;;9.91;100.00
34482;BME280;20720;48.886;9.388;2023-11-18T04:36:29;99232.59;;;8.82;100.00
34482;BME280;20720;48.886;9.388;2023-11-18T04:38:56;99222.06;;;9.91;100.00
34482;BME280;20720;48.886;9.388;2023-11-18T04:41:22;99241.69;;;10.26;100.00
34482;BME280;20720;48.886;9.388;2023-11-18T04:43:47;99237.63;;;10.23;100.00
34482;BME280;20720;48.886;9.388;2023-11-18T04:46:13;99237.41;;;10.10;100.00
34482;BME280;20720;48.886;9.388;2023-11-18T04:48:38;99240.72;;;9.96;100.00
34482;BME280;20720;48.886;9.388;2023-11-18T04:51:04;99241.63;;;10.11;100.00
34482;BME280;20720;48.886;9.388;2023-11-18T04:53:30;99225.06;;;9.33;100.00
34482;BME280;20720;48.886;9.388;2023-11-18T04:55:57;99224.66;;;9.61;100.00
34482;BME280;20720;48.886;9.388;2023-11-18T04:58:23;99234.56;;;9.81;100.00
34482;BME280;20720;48.886;9.388;2023-11-18T05:00:48;99223.84;;;9.91;100.00
34482;BME280;20720;48.886;9.388;2023-11-18T05:03:13;99227.53;;;10.12;100.00
34482;BME280;20720;48.886;9.388;2023-11-18T05:05:41;99225.25;;;10.09;100.00
34482;BME280;20720;48.886;9.388;2023-11-18T05:08:07;99225.84;;;9.50;100.00
34482;BME280;20720;48.886;9.388;2023-11-18T05:10:34;99227.06;;;9.70;100.00
34482;BME280;20720;48.886;9.388;2023-11-18T05:13:00;99225.41;;;9.77;100.00
34482;BME280;20720;48.886;9.388;2023-11-18T05:15:26;99240.31;;;10.15;100.00
34482;BME280;20720;48.886;9.388;2023-11-18T05:17:52;99241.56;;;10.27;100.00
34482;BME280;20720;48.886;9.388;2023-11-18T05:20:18;99245.22;;;10.41;100.00
34482;BME280;20720;48.886;9.388;2023-11-18T05:22:44;99247.91;;;10.33;100.00
34482;BME280;20720;48.886;9.388;2023-11-18T05:25:09;99252.78;;;10.05;100.00
34482;BME280;20720;48.886;9.388;2023-11-18T05:27:35;99251.66;;;10.08;100.00
34482;BME280;20720;48.886;9.388;2023-11-18T05:30:00;99246.56;;;10.06;100.00
34482;BME280;20720;48.886;9.388;2023-11-18T05:32:29;99251.22;;;9.96;100.00
34482;BME280;20720;48.886;9.388;2023-11-18T05:34:55;99241.75;;;9.87;100.00
34482;BME280;20720;48.886;9.388;2023-11-18T05:37:23;99249.38;;;9.66;100.00
34482;BME280;20720;48.886;9.388;2023-11-18T05:39:49;99248.69;;;9.80;100.00
34482;BME280;20720;48.886;9.388;2023-11-18T05:42:18;99230.38;;;9.64;100.00
34482;BME280;20720;48.886;9.388;2023-11-18T05:44:44;99233.66;;;9.66;100.00
34482;BME280;20720;48.886;9.388;2023-11-18T05:47:10;99238.63;;;9.53;100.00
34482;BME280;20720;48.886;9.388;2023-11-18T05:49:37;99235.25;;;9.36;100.00
34482;BME280;20720;48.886;9.388;2023-11-18T05:52:03;99236.88;;;9.29;100.00
34482;BME280;20720;48.886;9.388;2023-11-18T05:54:28;99223.03;;;9.05;100.00
34482;BME280;20720;48.886;9.388;2023-11-18T05:56:54;99226.69;;;8.72;100.00
34482;BME280;20720;48.886;9.388;2023-11-18T05:59:19;99218.13;;;9.02;100.00
34482;BME280;20720;48.886;9.388;2023-11-18T06:01:44;99235.16;;;9.06;100.00
34482;BME280;20720;48.886;9.388;2023-11-18T06:04:10;99227.00;;;8.77;100.00
34482;BME280;20720;48.886;9.388;2023-11-18T06:06:35;99226.09;;;9.16;100.00
34482;BME280;20720;48.886;9.388;2023-11-18T06:09:02;99219.75;;;9.03;100.00
34482;BME280;20720;48.886;9.388;2023-11-18T06:11:33;99212.22;;;9.08;100.00
34482;BME280;20720;48.886;9.388;2023-11-18T06:14:00;99200.44;;;9.04;100.00
34482;BME280;20720;48.886;9.388;2023-11-18T06:16:25;99207.00;;;9.00;100.00
34482;BME280;20720;48.886;9.388;2023-11-18T06:18:53;99210.94;;;8.88;100.00
34482;BME280;20720;48.886;9.388;2023-11-18T06:21:20;99217.63;;;9.06;100.00
34482;BME280;20720;48.886;9.388;2023-11-18T06:23:46;99213.38;;;9.05;100.00
34482;BME280;20720;48.886;9.388;2023-11-18T06:26:12;99198.16;;;8.93;100.00
34482;BME280;20720;48.886;9.388;2023-11-18T06:28:39;99209.97;;;8.97;100.00
34482;BME280;20720;48.886;9.388;2023-11-18T06:31:05;99222.16;;;9.20;100.00
34482;BME280;20720;48.886;9.388;2023-11-18T06:33:36;99227.59;;;9.11;100.00
34482;BME280;20720;48.886;9.388;2023-11-18T06:36:01;99234.19;;;8.99;100.00
34482;BME280;20720;48.886;9.388;2023-11-18T06:38:27;99235.69;;;8.61;100.00
34482;BME280;20720;48.886;9.388;2023-11-18T06:40:55;99228.66;;;8.70;100.00
34482;BME280;20720;48.886;9.388;2023-11-18T06:43:23;99237.47;;;8.77;100.00
34482;BME280;20720;48.886;9.388;2023-11-18T06:45:48;99240.94;;;8.85;100.00
34482;BME280;20720;48.886;9.388;2023-11-18T06:48:14;99256.81;;;8.84;100.00
34482;BME280;20720;48.886;9.388;2023-11-18T06:50:39;99254.50;;;8.40;100.00
34482;BME280;20720;48.886;9.388;2023-11-18T06:53:09;99241.56;;;8.39;100.00
34482;BME280;20720;48.886;9.388;2023-11-18T06:55:36;99246.50;;;8.58;100.00
34482;BME280;20720;48.886;9.388;2023-11-18T06:58:01;99255.81;;;8.44;100.00
34482;BME280;20720;48.886;9.388;2023-11-18T07:00:27;99250.44;;;8.62;100.00
34482;BME280;20720;48.886;9.388;2023-11-18T07:02:54;99248.28;;;8.66;100.00
34482;BME280;20720;48.886;9.388;2023-11-18T07:05:19;99250.41;;;8.30;100.00
34482;BME280;20720;48.886;9.388;2023-11-18T07:07:45;99252.50;;;9.23;100.00
34482;BME280;20720;48.886;9.388;2023-11-18T07:10:11;99247.63;;;8.72;100.00
34482;BME280;20720;48.886;9.388;2023-11-18T07:12:38;99250.41;;;9.65;100.00
34482;BME280;20720;48.886;9.388;2023-11-18T07:15:04;99252.94;;;10.20;100.00
34482;BME280;20720;48.886;9.388;2023-11-18T07:17:30;99264.59;;;10.63;100.00
34482;BME280;20720;48.886;9.388;2023-11-18T07:19:55;99263.66;;;10.78;100.00
34482;BME280;20720;48.886;9.388;2023-11-18T07:22:20;99271.53;;;10.78;100.00
34482;BME280;20720;48.886;9.388;2023-11-18T07:24:46;99273.53;;;11.13;100.00
34482;BME280;20720;48.886;9.388;2023-11-18T07:27:11;99279.22;;;11.17;100.00
34482;BME280;20720;48.886;9.388;2023-11-18T07:29:36;99277.81;;;11.87;100.00
34482;BME280;20720;48.886;9.388;2023-11-18T07:32:02;99274.41;;;12.22;100.00
34482;BME280;20720;48.886;9.388;2023-11-18T07:34:33;99282.13;;;12.09;100.00
34482;BME280;20720;48.886;9.388;2023-11-18T07:36:59;99281.97;;;12.68;100.00
34482;BME280;20720;48.886;9.388;2023-11-18T07:39:24;99273.31;;;12.53;99.35
34482;BME280;20720;48.886;9.388;2023-11-18T07:41:55;99275.56;;;11.84;98.95
34482;BME280;20720;48.886;9.388;2023-11-18T07:44:20;99282.03;;;11.15;100.00
34482;BME280;20720;48.886;9.388;2023-11-18T07:46:47;99268.78;;;12.47;100.00
34482;BME280;20720;48.886;9.388;2023-11-18T07:49:12;99275.16;;;12.80;97.72
34482;BME280;20720;48.886;9.388;2023-11-18T07:51:37;99281.41;;;12.15;99.15
34482;BME280;20720;48.886;9.388;2023-11-18T07:54:03;99265.94;;;12.90;97.91
34482;BME280;20720;48.886;9.388;2023-11-18T07:56:28;99269.44;;;12.97;97.98
34482;BME280;20720;48.886;9.388;2023-11-18T07:58:54;99269.59;;;13.45;95.05
34482;BME280;20720;48.886;9.388;2023-11-18T08:01:19;99270.34;;;13.66;93.81
34482;BME280;20720;48.886;9.388;2023-11-18T08:03:46;99267.75;;;13.11;92.52
34482;BME280;20720;48.886;9.388;2023-11-18T08:06:13;99277.25;;;13.33;96.06
34482;BME280;20720;48.886;9.388;2023-11-18T08:08:38;99279.78;;;12.99;95.85
34482;BME280;20720;48.886;9.388;2023-11-18T08:11:10;99287.88;;;12.70;97.55
34482;BME280;20720;48.886;9.388;2023-11-18T08:13:35;99292.31;;;12.48;97.08
34482;BME280;20720;48.886;9.388;2023-11-18T08:16:01;99280.69;;;12.43;96.97
34482;BME280;20720;48.886;9.388;2023-11-18T08:18:26;99268.38;;;11.20;100.00
34482;BME280;20720;48.886;9.388;2023-11-18T08:20:52;99269.53;;;9.11;100.00
34482;BME280;20720;48.886;9.388;2023-11-18T08:23:18;99278.78;;;9.92;100.00
34482;BME280;20720;48.886;9.388;2023-11-18T08:25:44;99277.22;;;10.67;100.00
34482;BME280;20720;48.886;9.388;2023-11-18T08:28:11;99270.25;;;10.74;100.00
34482;BME280;20720;48.886;9.388;2023-11-18T08:30:39;99267.13;;;11.74;100.00
34482;BME280;20720;48.886;9.388;2023-11-18T08:33:04;99273.03;;;11.76;100.00
34482;BME280;20720;48.886;9.388;2023-11-18T08:35:33;99276.13;;;11.65;100.00
34482;BME280;20720;48.886;9.388;2023-11-18T08:37:59;99274.19;;;12.60;100.00
34482;BME280;20720;48.886;9.388;2023-11-18T08:40:26;99276.06;;;12.87;96.58
34482;BME280;20720;48.886;9.388;2023-11-18T08:42:53;99277.16;;;12.78;96.96
34482;BME280;20720;48.886;9.388;2023-11-18T08:45:25;99276.56;;;12.34;100.00
34482;BME280;20720;48.886;9.388;2023-11-18T08:47:55;99278.84;;;12.22;100.00
34482;BME280;20720;48.886;9.388;2023-11-18T08:50:21;99273.41;;;13.08;97.51
34482;BME280;20720;48.886;9.388;2023-11-18T08:52:50;99277.63;;;13.30;93.60
34482;BME280;20720;48.886;9.388;2023-11-18T08:55:18;99275.63;;;13.32;95.32
34482;BME280;20720;48.886;9.388;2023-11-18T08:57:45;99282.19;;;12.94;93.40
34482;BME280;20720;48.886;9.388;2023-11-18T09:00:32;99285.34;;;12.05;98.36
34482;BME280;20720;48.886;9.388;2023-11-18T09:03:10;99266.69;;;12.42;99.93
34482;BME280;20720;48.886;9.388;2023-11-18T09:05:43;99257.59;;;12.87;96.59
34482;BME280;20720;48.886;9.388;2023-11-18T09:08:20;99265.09;;;12.41;97.24
34482;BME280;20720;48.886;9.388;2023-11-18T09:10:47;99263.63;;;12.81;98.81
34482;BME280;20720;48.886;9.388;2023-11-18T09:13:13;99269.34;;;12.63;94.46
34482;BME280;20720;48.886;9.388;2023-11-18T09:15:39;99273.44;;;12.66;96.46
34482;BME280;20720;48.886;9.388;2023-11-18T09:18:04;99270.19;;;12.07;98.57
34482;BME280;20720;48.886;9.388;2023-11-18T09:20:35;99276.84;;;11.74;100.00
34482;BME280;20720;48.886;9.388;2023-11-18T09:23:01;99273.00;;;12.26;100.00
34482;BME280;20720;48.886;9.388;2023-11-18T09:25:27;99276.41;;;12.20;95.30
34482;BME280;20720;48.886;9.388;2023-11-18T09:27:53;99273.44;;;12.66;93.62
34482;BME280;20720;48.886;9.388;2023-11-18T09:30:19;99267.94;;;13.09;90.12
34482;BME280;20720;48.886;9.388;2023-11-18T09:32:44;99277.44;;;12.41;94.96
34482;BME280;20720;48.886;9.388;2023-11-18T09:35:13;99274.06;;;13.44;89.38
34482;BME280;20720;48.886;9.388;2023-11-18T09:37:39;99280.41;;;13.90;84.28
34482;BME280;20720;48.886;9.388;2023-11-18T09:40:07;99291.88;;;14.10;82.52
34482;BME280;20720;48.886;9.388;2023-11-18T09:42:42;99281.88;;;14.60;81.31
34482;BME280;20720;48.886;9.388;2023-11-18T09:45:18;99291.91;;;13.42;82.48
34482;BME280;20720;48.886;9.388;2023-11-18T09:47:45;99284.50;;;14.60;80.65
34482;BME280;20720;48.886;9.388;2023-11-18T09:50:17;99284.25;;;13.47;83.08
34482;BME280;20720;48.886;9.388;2023-11-18T09:52:48;99273.06;;;13.79;84.00
34482;BME280;20720;48.886;9.388;2023-11-18T09:55:29;99271.09;;;13.26;84.90
34482;BME280;20720;48.886;9.388;2023-11-18T09:58:04;99278.91;;;13.75;84.85
34482;BME280;20720;48.886;9.388;2023-11-18T10:00:42;99270.16;;;14.22;81.62
34482;BME280;20720;48.886;9.388;2023-11-18T10:03:08;99284.41;;;12.90;86.40
34482;BME280;20720;48.886;9.388;2023-11-18T10:05:37;99281.81;;;14.34;81.13
34482;BME280;20720;48.886;9.388;2023-11-18T10:08:05;99267.03;;;13.98;81.88
34482;BME280;20720;48.886;9.388;2023-11-18T10:10:31;99276.59;;;14.73;79.98
34482;BME280;20720;48.886;9.388;2023-11-18T10:13:02;99277.81;;;14.03;80.76
34482;BME280;20720;48.886;9.388;2023-11-18T10:15:30;99274.31;;;13.90;79.53
34482;BME280;20720;48.886;9.388;2023-11-18T10:17:57;99266.81;;;13.93;80.33
34482;BME280;20720;48.886;9.388;2023-11-18T10:20:48;99273.59;;;13.34;83.86
34482;BME280;20720;48.886;9.388;2023-11-18T10:23:17;99265.22;;;13.24;85.35
34482;BME280;20720;48.886;9.388;2023-11-18T10:25:53;99259.41;;;13.07;86.89
34482;BME280;20720;48.886;9.388;2023-11-18T10:30:56;99264.75;;;13.48;84.64
34482;BME280;20720;48.886;9.388;2023-11-18T10:35:57;99265.00;;;13.60;80.52
34482;BME280;20720;48.886;9.388;2023-11-18T10:38:23;99266.09;;;13.72;79.84
34482;BME280;20720;48.886;9.388;2023-11-18T10:40:55;99263.88;;;13.75;81.37
34482;BME280;20720;48.886;9.388;2023-11-18T10:43:21;99263.41;;;13.59;79.72
34482;BME280;20720;48.886;9.388;2023-11-18T10:45:51;99257.31;;;13.31;79.72
34482;BME280;20720;48.886;9.388;2023-11-18T10:48:17;99261.22;;;12.44;86.53
34482;BME280;20720;48.886;9.388;2023-11-18T10:50:46;99251.47;;;13.69;81.79
34482;BME280;20720;48.886;9.388;2023-11-18T10:53:12;99248.44;;;14.33;80.03
34482;BME280;20720;48.886;9.388;2023-11-18T10:55:38;99251.78;;;14.00;79.86
34482;BME280;20720;48.886;9.388;2023-11-18T10:58:05;99242.75;;;13.07;84.98
34482;BME280;20720;48.886;9.388;2023-11-18T11:00:49;99251.59;;;12.51;88.06
34482;BME280;20720;48.886;9.388;2023-11-18T11:03:17;99243.31;;;12.81;88.41
34482;BME280;20720;48.886;9.388;2023-11-18T11:05:43;99245.16;;;12.81;85.43
34482;BME280;20720;48.886;9.388;2023-11-18T11:08:13;99242.16;;;12.63;89.00
34482;BME280;20720;48.886;9.388;2023-11-18T11:10:40;99232.88;;;12.67;87.09
34482;BME280;20720;48.886;9.388;2023-11-18T11:13:07;99248.13;;;12.99;85.39
34482;BME280;20720;48.886;9.388;2023-11-18T11:15:39;99238.09;;;13.09;88.37
34482;BME280;20720;48.886;9.388;2023-11-18T11:18:11;99237.97;;;13.51;85.13
34482;BME280;20720;48.886;9.388;2023-11-18T11:20:54;99243.31;;;13.64;83.40
34482;BME280;20720;48.886;9.388;2023-11-18T11:23:42;99245.56;;;13.67;84.93
34482;BME280;20720;48.886;9.388;2023-11-18T11:29:01;99232.03;;;13.83;82.83
34482;BME280;20720;48.886;9.388;2023-11-18T11:31:38;99221.13;;;13.18;84.48
34482;BME280;20720;48.886;9.388;2023-11-18T11:34:06;99228.81;;;13.13;85.91
34482;BME280;20720;48.886;9.388;2023-11-18T11:36:42;99218.94;;;13.28;85.65
34482;BME280;20720;48.886;9.388;2023-11-18T11:39:12;99212.38;;;14.12;82.70
34482;BME280;20720;48.886;9.388;2023-11-18T11:41:45;99216.97;;;13.77;82.18
34482;BME280;20720;48.886;9.388;2023-11-18T11:44:16;99215.13;;;12.82;82.92
34482;BME280;20720;48.886;9.388;2023-11-18T11:46:42;99215.00;;;13.52;83.88
34482;BME280;20720;48.886;9.388;2023-11-18T11:49:10;99215.44;;;13.21;83.35
34482;BME280;20720;48.886;9.388;2023-11-18T11:52:10;99207.84;;;13.46;84.19
34482;BME280;20720;48.886;9.388;2023-11-18T11:55:12;99201.13;;;13.77;81.38
34482;BME280;20720;48.886;9.388;2023-11-18T11:57:40;99192.50;;;13.15;84.96
34482;BME280;20720;48.886;9.388;2023-11-18T12:00:11;99188.63;;;14.18;81.32
34482;BME280;20720;48.886;9.388;2023-11-18T12:02:49;99181.03;;;13.89;82.19
34482;BME280;20720;48.886;9.388;2023-11-18T12:05:17;99172.84;;;13.24;83.56
34482;BME280;20720;48.886;9.388;2023-11-18T12:07:50;99180.97;;;13.29;83.87
34482;BME280;20720;48.886;9.388;2023-11-18T12:10:16;99183.34;;;13.17;84.44
34482;BME280;20720;48.886;9.388;2023-11-18T12:13:11;99177.66;;;12.86;85.29
34482;BME280;20720;48.886;9.388;2023-11-18T12:15:54;99163.22;;;13.10;82.80
34482;BME280;20720;48.886;9.388;2023-11-18T12:18:25;99162.38;;;13.03;84.07
34482;BME280;20720;48.886;9.388;2023-11-18T12:20:50;99153.19;;;12.99;83.74
34482;BME280;20720;48.886;9.388;2023-11-18T12:23:20;99149.28;;;12.95;85.15
34482;BME280;20720;48.886;9.388;2023-11-18T12:25:52;99137.25;;;13.13;82.73
34482;BME280;20720;48.886;9.388;2023-11-18T12:28:29;99124.16;;;12.65;85.51
34482;BME280;20720;48.886;9.388;2023-11-18T12:31:10;99120.88;;;13.25;84.10
34482;BME280;20720;48.886;9.388;2023-11-18T12:34:00;99116.25;;;12.99;85.09
34482;BME280;20720;48.886;9.388;2023-11-18T12:36:50;99105.63;;;12.86;83.66
34482;BME280;20720;48.886;9.388;2023-11-18T12:42:06;99095.75;;;12.67;85.71
34482;BME280;20720;48.886;9.388;2023-11-18T12:47:42;99096.88;;;12.23;86.21
34482;BME280;20720;48.886;9.388;2023-11-18T12:50:10;99093.00;;;12.19;86.60
34482;BME280;20720;48.886;9.388;2023-11-18T12:52:51;99094.69;;;12.55;85.43
34482;BME280;20720;48.886;9.388;2023-11-18T12:55:17;99101.31;;;13.60;81.71
34482;BME280;20720;48.886;9.388;2023-11-18T12:57:47;99099.94;;;12.89;84.13
34482;BME280;20720;48.886;9.388;2023-11-18T13:00:16;99093.56;;;12.70;84.84
34482;BME280;20720;48.886;9.388;2023-11-18T13:02:44;99081.47;;;12.82;84.39
34482;BME280;20720;48.886;9.388;2023-11-18T13:05:09;99081.75;;;12.94;83.80
34482;BME280;20720;48.886;9.388;2023-11-18T13:07:35;99087.44;;;12.97;84.54
34482;BME280;20720;48.886;9.388;2023-11-18T13:10:02;99071.31;;;13.20;83.04
34482;BME280;20720;48.886;9.388;2023-11-18T13:12:29;99083.53;;;12.04;87.75
34482;BME280;20720;48.886;9.388;2023-11-18T13:14:55;99096.88;;;12.79;85.77
34482;BME280;20720;48.886;9.388;2023-11-18T13:17:21;99096.25;;;12.77;86.11